sensor_id;sensor_type;location;lat;lon;timestamp;pressure;altitude;pressure_sealevel;temperature;humidity
57801;BME280;43627;42.728;23.256;2022-11-10T00:01:17;95654.59;;;6.33;100.00
57801;BME280;43627;42.728;23.256;2022-11-10T00:03:43;95666.28;;;6.30;100.00
57801;BME280;43627;42.728;23.256;2022-11-10T00:06:10;95669.06;;;6.26;100.00
57801;BME280;43627;42.728;23.256;2022-11-10T00:08:37;95658.41;;;5.96;100.00
57801;BME280;43627;42.728;23.256;2022-11-10T00:11:07;95665.00;;;5.95;100.00
57801;BME280;43627;42.728;23.256;2022-11-10T00:13:35;95664.66;;;5.93;100.00
57801;BME280;43627;42.728;23.256;2022-11-10T00:16:25;95671.00;;;5.83;100.00
57801;BME280;43627;42.728;23.256;2022-11-10T00:19:10;95663.09;;;5.68;100.00
57801;BME280;43627;42.728;23.256;2022-11-10T00:21:37;95668.50;;;5.68;100.00
57801;BME280;43627;42.728;23.256;2022-11-10T00:24:04;95667.13;;;5.60;100.00
57801;BME280;43627;42.728;23.256;2022-11-10T00:26:31;95664.53;;;5.53;100.00
57801;BME280;43627;42.728;23.256;2022-11-10T00:28:57;95655.53;;;5.60;100.00
57801;BME280;43627;42.728;23.256;2022-11-10T00:31:24;95661.72;;;5.60;100.00
57801;BME280;43627;42.728;23.256;2022-11-10T00:33:53;95649.38;;;5.59;100.00
57801;BME280;43627;42.728;23.256;2022-11-10T00:36:20;95653.66;;;5.57;100.00
57801;BME280;43627;42.728;23.256;2022-11-10T00:38:49;95663.53;;;5.67;100.00
57801;BME280;43627;42.728;23.256;2022-11-10T00:41:16;95656.66;;;5.62;100.00
57801;BME280;43627;42.728;23.256;2022-11-10T00:43:42;95641.06;;;5.47;100.00
57801;BME280;43627;42.728;23.256;2022-11-10T00:46:09;95657.53;;;5.56;100.00
57801;BME280;43627;42.728;23.256;2022-11-10T00:48:36;95638.69;;;5.49;100.00
57801;BME280;43627;42.728;23.256;2022-11-10T00:51:03;95644.06;;;5.52;100.00
57801;BME280;43627;42.728;23.256;2022-11-10T00:53:29;95638.44;;;5.43;100.00
57801;BME280;43627;42.728;23.256;2022-11-10T00:55:56;95636.72;;;5.53;100.00
57801;BME280;43627;42.728;23.256;2022-11-10T00:58:23;95640.84;;;5.61;100.00
57801;BME280;43627;42.728;23.256;2022-11-10T01:00:49;95639.09;;;5.51;100.00
57801;BME280;43627;42.728;23.256;2022-11-10T01:03:17;95634.00;;;5.53;100.00
57801;BME280;43627;42.728;23.256;2022-11-10T01:05:44;95635.13;;;5.55;100.00
57801;BME280;43627;42.728;23.256;2022-11-10T01:08:11;95631.00;;;5.47;100.00
57801;BME280;43627;42.728;23.256;2022-11-10T01:10:37;95640.53;;;5.55;100.00
57801;BME280;43627;42.728;23.256;2022-11-10T01:13:04;95638.66;;;5.52;100.00
57801;BME280;43627;42.728;23.256;2022-11-10T01:15:31;95614.88;;;5.40;100.00
57801;BME280;43627;42.728;23.256;2022-11-10T01:17:58;95643.16;;;5.59;100.00
57801;BME280;43627;42.728;23.256;2022-11-10T01:20:24;95647.59;;;5.72;100.00
57801;BME280;43627;42.728;23.256;2022-11-10T01:22:51;95643.34;;;5.71;100.00
57801;BME280;43627;42.728;23.256;2022-11-10T01:25:18;95638.00;;;5.68;100.00
57801;BME280;43627;42.728;23.256;2022-11-10T01:27:45;95607.00;;;5.49;100.00
57801;BME280;43627;42.728;23.256;2022-11-10T01:30:12;95627.53;;;5.47;100.00
57801;BME280;43627;42.728;23.256;2022-11-10T01:32:39;95627.19;;;5.44;100.00
57801;BME280;43627;42.728;23.256;2022-11-10T01:35:06;95636.06;;;5.45;100.00
57801;BME280;43627;42.728;23.256;2022-11-10T01:37:33;95612.44;;;5.26;100.00
57801;BME280;43627;42.728;23.256;2022-11-10T01:40:00;95625.00;;;5.36;100.00
57801;BME280;43627;42.728;23.256;2022-11-10T01:42:55;95641.94;;;5.40;100.00
57801;BME280;43627;42.728;23.256;2022-11-10T01:47:57;95626.25;;;5.31;100.00
57801;BME280;43627;42.728;23.256;2022-11-10T01:50:27;95606.84;;;5.13;100.00
57801;BME280;43627;42.728;23.256;2022-11-10T01:53:00;95605.13;;;4.99;100.00
57801;BME280;43627;42.728;23.256;2022-11-10T01:55:28;95591.84;;;4.85;100.00
57801;BME280;43627;42.728;23.256;2022-11-10T01:57:56;95628.81;;;5.15;100.00
57801;BME280;43627;42.728;23.256;2022-11-10T02:00:23;95633.94;;;5.09;100.00
57801;BME280;43627;42.728;23.256;2022-11-10T02:05:41;95618.97;;;5.01;100.00
57801;BME280;43627;42.728;23.256;2022-11-10T02:08:11;95615.94;;;4.99;100.00
57801;BME280;43627;42.728;23.256;2022-11-10T02:10:39;95617.59;;;4.93;100.00
57801;BME280;43627;42.728;23.256;2022-11-10T02:13:05;95640.72;;;4.94;100.00
57801;BME280;43627;42.728;23.256;2022-11-10T02:15:32;95634.84;;;4.99;100.00
57801;BME280;43627;42.728;23.256;2022-11-10T02:17:59;95622.97;;;4.66;100.00
57801;BME280;43627;42.728;23.256;2022-11-10T02:20:25;95637.97;;;4.71;100.00
57801;BME280;43627;42.728;23.256;2022-11-10T02:22:52;95643.41;;;4.67;100.00
57801;BME280;43627;42.728;23.256;2022-11-10T02:25:20;95641.78;;;4.73;100.00
57801;BME280;43627;42.728;23.256;2022-11-10T02:27:48;95635.22;;;4.74;100.00
57801;BME280;43627;42.728;23.256;2022-11-10T02:30:15;95642.59;;;4.70;100.00
57801;BME280;43627;42.728;23.256;2022-11-10T02:32:42;95646.78;;;4.75;100.00
57801;BME280;43627;42.728;23.256;2022-11-10T02:35:09;95624.66;;;4.56;100.00
57801;BME280;43627;42.728;23.256;2022-11-10T02:37:36;95649.44;;;4.78;100.00
57801;BME280;43627;42.728;23.256;2022-11-10T02:40:03;95651.13;;;4.69;100.00
57801;BME280;43627;42.728;23.256;2022-11-10T02:42:30;95657.28;;;4.69;100.00
57801;BME280;43627;42.728;23.256;2022-11-10T02:44:57;95657.22;;;4.73;100.00
57801;BME280;43627;42.728;23.256;2022-11-10T02:47:24;95656.69;;;4.85;100.00
57801;BME280;43627;42.728;23.256;2022-11-10T02:49:51;95641.75;;;4.77;100.00
57801;BME280;43627;42.728;23.256;2022-11-10T02:52:17;95654.69;;;4.89;100.00
57801;BME280;43627;42.728;23.256;2022-11-10T02:54:44;95658.91;;;4.90;100.00
57801;BME280;43627;42.728;23.256;2022-11-10T02:57:11;95659.75;;;4.87;100.00
57801;BME280;43627;42.728;23.256;2022-11-10T02:59:38;95668.69;;;4.80;100.00
57801;BME280;43627;42.728;23.256;2022-11-10T03:02:04;95665.38;;;4.69;100.00
57801;BME280;43627;42.728;23.256;2022-11-10T03:04:31;95658.78;;;4.74;100.00
57801;BME280;43627;42.728;23.256;2022-11-10T03:06:58;95640.38;;;4.65;100.00
57801;BME280;43627;42.728;23.256;2022-11-10T03:09:24;95668.69;;;4.80;100.00
57801;BME280;43627;42.728;23.256;2022-11-10T03:11:51;95663.00;;;4.75;100.00
57801;BME280;43627;42.728;23.256;2022-11-10T03:14:18;95657.97;;;4.73;100.00
57801;BME280;43627;42.728;23.256;2022-11-10T03:16:44;95672.16;;;4.81;100.00
57801;BME280;43627;42.728;23.256;2022-11-10T03:19:11;95667.53;;;4.81;100.00
57801;BME280;43627;42.728;23.256;2022-11-10T03:21:38;95647.78;;;4.57;100.00
57801;BME280;43627;42.728;23.256;2022-11-10T03:24:05;95664.47;;;4.79;100.00
57801;BME280;43627;42.728;23.256;2022-11-10T03:26:31;95663.72;;;4.79;100.00
57801;BME280;43627;42.728;23.256;2022-11-10T03:28:58;95664.25;;;4.67;100.00
57801;BME280;43627;42.728;23.256;2022-11-10T03:31:25;95665.59;;;4.82;100.00
57801;BME280;43627;42.728;23.256;2022-11-10T03:33:51;95663.97;;;4.88;100.00
57801;BME280;43627;42.728;23.256;2022-11-10T03:36:18;95677.13;;;4.86;100.00
57801;BME280;43627;42.728;23.256;2022-11-10T03:38:45;95682.13;;;4.87;100.00
57801;BME280;43627;42.728;23.256;2022-11-10T03:41:11;95683.31;;;4.83;100.00
57801;BME280;43627;42.728;23.256;2022-11-10T03:43:44;95684.41;;;4.89;100.00
57801;BME280;43627;42.728;23.256;2022-11-10T03:46:11;95675.47;;;4.92;100.00
57801;BME280;43627;42.728;23.256;2022-11-10T03:48:38;95680.44;;;4.97;100.00
57801;BME280;43627;42.728;23.256;2022-11-10T03:51:05;95682.31;;;5.00;100.00
57801;BME280;43627;42.728;23.256;2022-11-10T03:53:32;95677.81;;;4.94;100.00
57801;BME280;43627;42.728;23.256;2022-11-10T03:56:00;95676.41;;;4.82;100.00
57801;BME280;43627;42.728;23.256;2022-11-10T03:58:27;95679.50;;;4.80;100.00
57801;BME280;43627;42.728;23.256;2022-11-10T04:00:55;95684.88;;;4.84;100.00
57801;BME280;43627;42.728;23.256;2022-11-10T04:03:22;95681.78;;;4.85;100.00
57801;BME280;43627;42.728;23.256;2022-11-10T04:05:50;95688.72;;;4.83;100.00
57801;BME280;43627;42.728;23.256;2022-11-10T04:08:35;95692.53;;;4.89;100.00
57801;BME280;43627;42.728;23.256;2022-11-10T04:11:20;95676.66;;;4.91;100.00
57801;BME280;43627;42.728;23.256;2022-11-10T04:14:05;95676.41;;;4.82;100.00
57801;BME280;43627;42.728;23.256;2022-11-10T04:16:51;95669.94;;;4.76;100.00
57801;BME280;43627;42.728;23.256;2022-11-10T04:19:17;95683.66;;;4.88;100.00
57801;BME280;43627;42.728;23.256;2022-11-10T04:21:44;95677.97;;;4.79;100.00
57801;BME280;43627;42.728;23.256;2022-11-10T04:24:11;95691.34;;;4.90;100.00
57801;BME280;43627;42.728;23.256;2022-11-10T04:26:38;95703.59;;;4.98;100.00
57801;BME280;43627;42.728;23.256;2022-11-10T04:29:07;95695.47;;;4.98;100.00
57801;BME280;43627;42.728;23.256;2022-11-10T04:31:36;95687.53;;;4.87;100.00
57801;BME280;43627;42.728;23.256;2022-11-10T04:34:11;95664.97;;;4.71;100.00
57801;BME280;43627;42.728;23.256;2022-11-10T04:36:41;95698.28;;;4.91;100.00
57801;BME280;43627;42.728;23.256;2022-11-10T04:39:08;95697.88;;;4.93;100.00
57801;BME280;43627;42.728;23.256;2022-11-10T04:41:35;95681.41;;;4.83;100.00
57801;BME280;43627;42.728;23.256;2022-11-10T04:44:03;95697.00;;;4.99;100.00
57801;BME280;43627;42.728;23.256;2022-11-10T04:48:58;95699.28;;;5.04;100.00
57801;BME280;43627;42.728;23.256;2022-11-10T04:51:30;95708.59;;;5.00;100.00
57801;BME280;43627;42.728;23.256;2022-11-10T04:53:57;95700.53;;;4.96;100.00
57801;BME280;43627;42.728;23.256;2022-11-10T04:56:25;95650.78;;;4.63;100.00
57801;BME280;43627;42.728;23.256;2022-11-10T04:58:52;95703.44;;;5.09;100.00
57801;BME280;43627;42.728;23.256;2022-11-10T05:01:22;95689.25;;;5.01;100.00
57801;BME280;43627;42.728;23.256;2022-11-10T05:03:50;95706.28;;;4.98;100.00
57801;BME280;43627;42.728;23.256;2022-11-10T05:06:17;95707.81;;;4.99;100.00
57801;BME280;43627;42.728;23.256;2022-11-10T05:08:44;95711.69;;;4.98;100.00
57801;BME280;43627;42.728;23.256;2022-11-10T05:11:11;95701.19;;;4.77;100.00
57801;BME280;43627;42.728;23.256;2022-11-10T05:13:42;95722.59;;;4.91;100.00
57801;BME280;43627;42.728;23.256;2022-11-10T05:16:10;95709.22;;;4.80;100.00
57801;BME280;43627;42.728;23.256;2022-11-10T05:18:39;95725.03;;;4.82;100.00
57801;BME280;43627;42.728;23.256;2022-11-10T05:21:05;95730.41;;;4.85;100.00
57801;BME280;43627;42.728;23.256;2022-11-10T05:23:32;95724.94;;;4.89;100.00
57801;BME280;43627;42.728;23.256;2022-11-10T05:26:13;95708.31;;;4.91;100.00
57801;BME280;43627;42.728;23.256;2022-11-10T05:28:42;95714.22;;;5.12;100.00
57801;BME280;43627;42.728;23.256;2022-11-10T05:31:10;95708.34;;;5.18;100.00
57801;BME280;43627;42.728;23.256;2022-11-10T05:33:37;95719.00;;;5.28;100.00
57801;BME280;43627;42.728;23.256;2022-11-10T05:36:05;95717.72;;;5.36;100.00
57801;BME280;43627;42.728;23.256;2022-11-10T05:38:32;95724.50;;;5.48;100.00
57801;BME280;43627;42.728;23.256;2022-11-10T05:41:04;95736.31;;;5.58;100.00
57801;BME280;43627;42.728;23.256;2022-11-10T05:43:31;95716.22;;;5.59;100.00
57801;BME280;43627;42.728;23.256;2022-11-10T05:45:58;95738.34;;;5.77;100.00
57801;BME280;43627;42.728;23.256;2022-11-10T05:48:25;95732.94;;;5.77;100.00
57801;BME280;43627;42.728;23.256;2022-11-10T05:50:51;95728.81;;;5.69;100.00
57801;BME280;43627;42.728;23.256;2022-11-10T05:53:18;95731.81;;;5.74;100.00
57801;BME280;43627;42.728;23.256;2022-11-10T05:55:46;95745.31;;;5.78;100.00
57801;BME280;43627;42.728;23.256;2022-11-10T05:58:12;95734.75;;;5.60;100.00
57801;BME280;43627;42.728;23.256;2022-11-10T06:00:39;95736.81;;;5.53;100.00
57801;BME280;43627;42.728;23.256;2022-11-10T06:03:12;95749.91;;;5.54;100.00
57801;BME280;43627;42.728;23.256;2022-11-10T06:05:39;95755.22;;;5.61;100.00
57801;BME280;43627;42.728;23.256;2022-11-10T06:08:07;95749.81;;;5.61;100.00
57801;BME280;43627;42.728;23.256;2022-11-10T06:10:35;95758.84;;;5.51;100.00
57801;BME280;43627;42.728;23.256;2022-11-10T06:13:02;95767.78;;;5.48;100.00
57801;BME280;43627;42.728;23.256;2022-11-10T06:15:29;95772.13;;;5.42;100.00
57801;BME280;43627;42.728;23.256;2022-11-10T06:17:56;95765.13;;;5.44;100.00
57801;BME280;43627;42.728;23.256;2022-11-10T06:20:24;95746.34;;;5.34;100.00
57801;BME280;43627;42.728;23.256;2022-11-10T06:23:06;95770.47;;;5.48;100.00
57801;BME280;43627;42.728;23.256;2022-11-10T06:25:36;95771.19;;;5.52;100.00
57801;BME280;43627;42.728;23.256;2022-11-10T06:28:03;95762.34;;;5.48;100.00
57801;BME280;43627;42.728;23.256;2022-11-10T06:30:32;95778.56;;;5.52;100.00
57801;BME280;43627;42.728;23.256;2022-11-10T06:32:59;95780.03;;;5.56;100.00
57801;BME280;43627;42.728;23.256;2022-11-10T06:35:27;95790.69;;;5.67;100.00
57801;BME280;43627;42.728;23.256;2022-11-10T06:38:08;95788.53;;;5.82;100.00
57801;BME280;43627;42.728;23.256;2022-11-10T06:40:35;95791.34;;;6.01;100.00
57801;BME280;43627;42.728;23.256;2022-11-10T06:43:02;95783.38;;;6.14;100.00
57801;BME280;43627;42.728;23.256;2022-11-10T06:45:29;95805.00;;;6.18;100.00
57801;BME280;43627;42.728;23.256;2022-11-10T06:48:08;95798.41;;;6.19;100.00
57801;BME280;43627;42.728;23.256;2022-11-10T06:50:36;95801.88;;;6.19;100.00
57801;BME280;43627;42.728;23.256;2022-11-10T06:53:03;95803.53;;;6.13;100.00
57801;BME280;43627;42.728;23.256;2022-11-10T06:55:30;95802.56;;;6.23;100.00
57801;BME280;43627;42.728;23.256;2022-11-10T06:57:57;95803.81;;;6.19;100.00
57801;BME280;43627;42.728;23.256;2022-11-10T07:00:24;95796.59;;;6.36;100.00
57801;BME280;43627;42.728;23.256;2022-11-10T07:03:18;95801.38;;;6.48;100.00
57801;BME280;43627;42.728;23.256;2022-11-10T07:05:46;95801.63;;;6.57;100.00
57801;BME280;43627;42.728;23.256;2022-11-10T07:08:14;95789.31;;;6.72;100.00
57801;BME280;43627;42.728;23.256;2022-11-10T07:10:51;95800.31;;;7.05;100.00
57801;BME280;43627;42.728;23.256;2022-11-10T07:13:18;95808.66;;;7.14;100.00
57801;BME280;43627;42.728;23.256;2022-11-10T07:15:46;95806.28;;;7.16;100.00
57801;BME280;43627;42.728;23.256;2022-11-10T07:18:13;95813.50;;;7.23;100.00
57801;BME280;43627;42.728;23.256;2022-11-10T07:20:40;95816.56;;;7.61;100.00
57801;BME280;43627;42.728;23.256;2022-11-10T07:23:07;95813.13;;;7.93;100.00
57801;BME280;43627;42.728;23.256;2022-11-10T07:25:35;95813.97;;;8.22;100.00
57801;BME280;43627;42.728;23.256;2022-11-10T07:28:04;95805.41;;;8.24;100.00
57801;BME280;43627;42.728;23.256;2022-11-10T07:30:33;95809.13;;;8.30;100.00
57801;BME280;43627;42.728;23.256;2022-11-10T07:33:10;95813.56;;;8.40;100.00
57801;BME280;43627;42.728;23.256;2022-11-10T07:35:38;95802.19;;;8.45;100.00
57801;BME280;43627;42.728;23.256;2022-11-10T07:38:10;95808.72;;;8.48;100.00
57801;BME280;43627;42.728;23.256;2022-11-10T07:40:38;95812.97;;;8.49;100.00
57801;BME280;43627;42.728;23.256;2022-11-10T07:43:05;95795.47;;;8.50;100.00
57801;BME280;43627;42.728;23.256;2022-11-10T07:45:32;95814.34;;;8.70;100.00
57801;BME280;43627;42.728;23.256;2022-11-10T07:48:00;95812.47;;;8.83;100.00
57801;BME280;43627;42.728;23.256;2022-11-10T07:50:27;95806.31;;;8.95;100.00
57801;BME280;43627;42.728;23.256;2022-11-10T07:53:05;95792.06;;;8.91;100.00
57801;BME280;43627;42.728;23.256;2022-11-10T07:55:33;95811.50;;;8.90;100.00
57801;BME280;43627;42.728;23.256;2022-11-10T07:58:00;95813.09;;;9.16;100.00
57801;BME280;43627;42.728;23.256;2022-11-10T08:00:27;95810.22;;;9.36;100.00
57801;BME280;43627;42.728;23.256;2022-11-10T08:03:09;95802.16;;;9.45;100.00
57801;BME280;43627;42.728;23.256;2022-11-10T08:05:36;95817.75;;;9.44;100.00
57801;BME280;43627;42.728;23.256;2022-11-10T08:08:04;95788.09;;;9.21;100.00
57801;BME280;43627;42.728;23.256;2022-11-10T08:10:31;95816.72;;;9.26;100.00
57801;BME280;43627;42.728;23.256;2022-11-10T08:13:00;95795.72;;;9.26;100.00
57801;BME280;43627;42.728;23.256;2022-11-10T08:15:29;95806.59;;;9.26;100.00
57801;BME280;43627;42.728;23.256;2022-11-10T08:18:07;95822.22;;;9.09;100.00
57801;BME280;43627;42.728;23.256;2022-11-10T08:20:38;95812.09;;;9.39;100.00
57801;BME280;43627;42.728;23.256;2022-11-10T08:23:05;95820.69;;;9.50;100.00
57801;BME280;43627;42.728;23.256;2022-11-10T08:25:34;95816.44;;;9.74;100.00
57801;BME280;43627;42.728;23.256;2022-11-10T08:28:04;95816.13;;;9.98;100.00
57801;BME280;43627;42.728;23.256;2022-11-10T08:30:32;95807.09;;;10.01;100.00
57801;BME280;43627;42.728;23.256;2022-11-10T08:33:00;95810.22;;;10.12;100.00
57801;BME280;43627;42.728;23.256;2022-11-10T08:35:29;95815.25;;;10.26;100.00
57801;BME280;43627;42.728;23.256;2022-11-10T08:37:57;95823.22;;;10.34;100.00
57801;BME280;43627;42.728;23.256;2022-11-10T08:40:27;95811.09;;;10.35;100.00
57801;BME280;43627;42.728;23.256;2022-11-10T08:42:58;95811.38;;;10.49;100.00
57801;BME280;43627;42.728;23.256;2022-11-10T08:45:26;95811.28;;;10.53;100.00
57801;BME280;43627;42.728;23.256;2022-11-10T08:48:06;95819.13;;;10.85;100.00
57801;BME280;43627;42.728;23.256;2022-11-10T08:50:33;95825.19;;;11.02;100.00
57801;BME280;43627;42.728;23.256;2022-11-10T08:53:11;95821.09;;;11.07;100.00
57801;BME280;43627;42.728;23.256;2022-11-10T08:55:39;95821.69;;;11.24;100.00
57801;BME280;43627;42.728;23.256;2022-11-10T08:58:06;95820.41;;;11.37;100.00
57801;BME280;43627;42.728;23.256;2022-11-10T09:00:34;95813.69;;;11.60;100.00
57801;BME280;43627;42.728;23.256;2022-11-10T09:03:06;95818.91;;;11.67;100.00
57801;BME280;43627;42.728;23.256;2022-11-10T09:05:34;95819.03;;;11.64;100.00
57801;BME280;43627;42.728;23.256;2022-11-10T09:08:02;95809.34;;;11.72;100.00
57801;BME280;43627;42.728;23.256;2022-11-10T09:10:34;95828.16;;;12.01;100.00
57801;BME280;43627;42.728;23.256;2022-11-10T09:13:02;95817.69;;;11.99;100.00
57801;BME280;43627;42.728;23.256;2022-11-10T09:15:30;95823.47;;;11.70;100.00
57801;BME280;43627;42.728;23.256;2022-11-10T09:18:03;95820.47;;;12.09;100.00
57801;BME280;43627;42.728;23.256;2022-11-10T09:20:31;95817.75;;;12.18;100.00
57801;BME280;43627;42.728;23.256;2022-11-10T09:23:12;95805.09;;;12.02;100.00
57801;BME280;43627;42.728;23.256;2022-11-10T09:25:40;95810.44;;;12.06;100.00
57801;BME280;43627;42.728;23.256;2022-11-10T09:28:12;95806.25;;;12.23;100.00
57801;BME280;43627;42.728;23.256;2022-11-10T09:30:39;95810.06;;;12.35;100.00
57801;BME280;43627;42.728;23.256;2022-11-10T09:33:06;95785.59;;;12.40;100.00
57801;BME280;43627;42.728;23.256;2022-11-10T09:35:33;95800.81;;;12.87;100.00
57801;BME280;43627;42.728;23.256;2022-11-10T09:37:59;95806.31;;;12.87;100.00
57801;BME280;43627;42.728;23.256;2022-11-10T09:43:23;95801.28;;;12.67;100.00
57801;BME280;43627;42.728;23.256;2022-11-10T09:45:54;95809.94;;;12.75;100.00
57801;BME280;43627;42.728;23.256;2022-11-10T09:48:29;95795.66;;;12.52;100.00
57801;BME280;43627;42.728;23.256;2022-11-10T09:51:00;95794.59;;;12.86;100.00
57801;BME280;43627;42.728;23.256;2022-11-10T09:53:33;95802.34;;;13.34;100.00
57801;BME280;43627;42.728;23.256;2022-11-10T09:56:04;95787.09;;;13.51;97.54
57801;BME280;43627;42.728;23.256;2022-11-10T09:58:40;95801.78;;;13.72;92.68
57801;BME280;43627;42.728;23.256;2022-11-10T10:03:59;95753.66;;;13.71;88.38
57801;BME280;43627;42.728;23.256;2022-11-10T10:06:30;95787.81;;;13.61;91.06
57801;BME280;43627;42.728;23.256;2022-11-10T10:20:42;95797.78;;;13.22;95.37
57801;BME280;43627;42.728;23.256;2022-11-10T10:23:22;95796.84;;;13.43;92.78
57801;BME280;43627;42.728;23.256;2022-11-10T10:26:16;95792.91;;;13.26;93.77
57801;BME280;43627;42.728;23.256;2022-11-10T10:28:45;95777.09;;;13.21;92.96
57801;BME280;43627;42.728;23.256;2022-11-10T10:31:18;95775.22;;;13.45;91.73
57801;BME280;43627;42.728;23.256;2022-11-10T10:33:46;95763.03;;;13.55;90.52
57801;BME280;43627;42.728;23.256;2022-11-10T10:36:17;95780.75;;;13.78;90.26
57801;BME280;43627;42.728;23.256;2022-11-10T10:38:47;95785.44;;;13.87;89.11
57801;BME280;43627;42.728;23.256;2022-11-10T10:41:24;95784.44;;;13.75;90.08
57801;BME280;43627;42.728;23.256;2022-11-10T10:43:54;95773.16;;;13.73;90.67
57801;BME280;43627;42.728;23.256;2022-11-10T10:46:22;95759.03;;;13.65;92.04
57801;BME280;43627;42.728;23.256;2022-11-10T10:52:15;95767.81;;;14.36;85.51
57801;BME280;43627;42.728;23.256;2022-11-10T10:54:42;95768.09;;;14.38;84.29
57801;BME280;43627;42.728;23.256;2022-11-10T10:59:49;95749.28;;;14.54;81.62
57801;BME280;43627;42.728;23.256;2022-11-10T11:02:30;95754.69;;;14.64;81.72
57801;BME280;43627;42.728;23.256;2022-11-10T11:05:13;95753.09;;;14.72;79.65
57801;BME280;43627;42.728;23.256;2022-11-10T11:07:41;95747.81;;;14.83;79.06
57801;BME280;43627;42.728;23.256;2022-11-10T11:10:26;95752.13;;;14.99;77.85
57801;BME280;43627;42.728;23.256;2022-11-10T11:12:53;95741.94;;;14.75;78.14
57801;BME280;43627;42.728;23.256;2022-11-10T11:15:22;95755.38;;;14.73;78.95
57801;BME280;43627;42.728;23.256;2022-11-10T11:17:57;95750.44;;;14.77;79.48
57801;BME280;43627;42.728;23.256;2022-11-10T11:20:36;95742.13;;;14.72;79.65
57801;BME280;43627;42.728;23.256;2022-11-10T11:23:18;95749.88;;;14.73;79.45
57801;BME280;43627;42.728;23.256;2022-11-10T11:25:48;95734.44;;;14.61;80.51
57801;BME280;43627;42.728;23.256;2022-11-10T11:28:28;95737.94;;;14.62;81.25
57801;BME280;43627;42.728;23.256;2022-11-10T11:31:10;95721.13;;;14.45;80.97
57801;BME280;43627;42.728;23.256;2022-11-10T11:36:44;95715.34;;;14.43;83.19
57801;BME280;43627;42.728;23.256;2022-11-10T11:45:39;95729.56;;;14.80;81.37
57801;BME280;43627;42.728;23.256;2022-11-10T11:48:20;95717.09;;;14.55;82.28
57801;BME280;43627;42.728;23.256;2022-11-10T11:50:58;95709.63;;;14.55;81.22
57801;BME280;43627;42.728;23.256;2022-11-10T11:59:32;95722.28;;;15.06;79.07
57801;BME280;43627;42.728;23.256;2022-11-10T12:02:27;95718.78;;;15.35;75.78
57801;BME280;43627;42.728;23.256;2022-11-10T12:05:10;95725.78;;;15.66;73.02
57801;BME280;43627;42.728;23.256;2022-11-10T12:07:58;95721.72;;;15.47;72.33
57801;BME280;43627;42.728;23.256;2022-11-10T12:10:52;95724.25;;;15.06;76.58
57801;BME280;43627;42.728;23.256;2022-11-10T12:13:40;95715.94;;;15.30;75.84
57801;BME280;43627;42.728;23.256;2022-11-10T12:18:46;95725.22;;;15.47;73.65
57801;BME280;43627;42.728;23.256;2022-11-10T12:29:40;95726.97;;;15.80;71.10
57801;BME280;43627;42.728;23.256;2022-11-10T12:32:21;95719.50;;;15.80;71.00
57801;BME280;43627;42.728;23.256;2022-11-10T12:35:16;95726.91;;;16.09;69.39
57801;BME280;43627;42.728;23.256;2022-11-10T12:38:34;95730.97;;;16.14;68.70
57801;BME280;43627;42.728;23.256;2022-11-10T12:40:41;95719.59;;;15.86;69.05
57801;BME280;43627;42.728;23.256;2022-11-10T12:43:22;95728.53;;;15.66;72.43
57801;BME280;43627;42.728;23.256;2022-11-10T12:45:56;95726.28;;;15.64;73.02
57801;BME280;43627;42.728;23.256;2022-11-10T12:48:24;95729.44;;;15.92;73.65
57801;BME280;43627;42.728;23.256;2022-11-10T12:51:40;95726.84;;;15.39;74.58
57801;BME280;43627;42.728;23.256;2022-11-10T12:53:47;95707.91;;;15.26;75.90
57801;BME280;43627;42.728;23.256;2022-11-10T12:56:19;95723.97;;;15.33;74.33
57801;BME280;43627;42.728;23.256;2022-11-10T12:58:48;95727.69;;;15.01;76.46
57801;BME280;43627;42.728;23.256;2022-11-10T13:01:17;95735.25;;;15.21;75.83
57801;BME280;43627;42.728;23.256;2022-11-10T13:03:54;95724.56;;;15.08;76.09
57801;BME280;43627;42.728;23.256;2022-11-10T13:06:27;95731.25;;;15.51;77.39
57801;BME280;43627;42.728;23.256;2022-11-10T13:08:56;95718.00;;;15.50;74.77
57801;BME280;43627;42.728;23.256;2022-11-10T13:11:32;95734.19;;;15.77;74.37
57801;BME280;43627;42.728;23.256;2022-11-10T13:14:01;95735.72;;;15.78;71.62
57801;BME280;43627;42.728;23.256;2022-11-10T13:29:27;95732.88;;;15.58;74.96
57801;BME280;43627;42.728;23.256;2022-11-10T13:31:56;95720.28;;;15.51;73.18
57801;BME280;43627;42.728;23.256;2022-11-10T13:34:28;95743.03;;;15.52;73.48
57801;BME280;43627;42.728;23.256;2022-11-10T13:36:55;95739.97;;;15.79;71.62
57801;BME280;43627;42.728;23.256;2022-11-10T13:39:24;95743.72;;;15.96;72.03
57801;BME280;43627;42.728;23.256;2022-11-10T13:42:12;95750.41;;;16.10;71.93
57801;BME280;43627;42.728;23.256;2022-11-10T13:44:42;95745.25;;;15.97;70.45
57801;BME280;43627;42.728;23.256;2022-11-10T13:52:17;95740.88;;;15.26;76.35
57801;BME280;43627;42.728;23.256;2022-11-10T13:55:13;95741.53;;;15.21;78.00
57801;BME280;43627;42.728;23.256;2022-11-10T14:00:31;95741.53;;;15.36;79.06
57801;BME280;43627;42.728;23.256;2022-11-10T14:03:00;95744.56;;;15.67;74.39
57801;BME280;43627;42.728;23.256;2022-11-10T14:10:50;95753.72;;;15.79;75.63
57801;BME280;43627;42.728;23.256;2022-11-10T14:13:25;95757.91;;;15.75;73.14
57801;BME280;43627;42.728;23.256;2022-11-10T14:15:53;95754.38;;;15.89;73.20
57801;BME280;43627;42.728;23.256;2022-11-10T14:18:23;95746.00;;;15.98;71.01
57801;BME280;43627;42.728;23.256;2022-11-10T14:20:55;95748.13;;;15.88;70.54
57801;BME280;43627;42.728;23.256;2022-11-10T14:26:16;95757.38;;;15.91;71.21
57801;BME280;43627;42.728;23.256;2022-11-10T14:28:46;95755.59;;;15.88;71.48
57801;BME280;43627;42.728;23.256;2022-11-10T14:31:21;95747.00;;;15.80;71.75